Aviation Digital Data Service (ADDS)

Output produced by METARs form (1931 UTC 19 August 2019)
found at http://www.aviationweather.gov/metar/data/
 
Forecast for: NSFA (FALEOLO INT/APIA, WS)
Text: TAF NSFA 191710Z 1918/2018 10006KT 9999 SCT030
Forecast period: 1800 UTC 19 August 2019 to 1800 UTC 20 August 2019
Forecast type: FROM: standard forecast or significant change
Winds: from the E (100 degrees) at 7 MPH (6 knots; 3.1 m/s)
Visibility: 6 or more miles 10+ km)
Ceiling: at least 12,000 feet AGL
Clouds: scattered clouds at 3000 feet AGL
Weather: no significant weather forecast for this period